sensor_id;sensor_type;location;lat;lon;timestamp;temperature;humidity
43679;DHT22;29279;50.858;4.392;2023-04-25T00:01:06;11.30;99.90
43679;DHT22;29279;50.858;4.392;2023-04-25T00:03:34;11.20;99.90
43679;DHT22;29279;50.858;4.392;2023-04-25T00:06:00;11.20;99.90
43679;DHT22;29279;50.858;4.392;2023-04-25T00:08:31;11.30;99.90
43679;DHT22;29279;50.858;4.392;2023-04-25T00:10:57;11.40;99.90
43679;DHT22;29279;50.858;4.392;2023-04-25T00:13:23;11.40;99.90
43679;DHT22;29279;50.858;4.392;2023-04-25T00:15:51;11.40;99.90
43679;DHT22;29279;50.858;4.392;2023-04-25T00:18:16;11.40;99.90
43679;DHT22;29279;50.858;4.392;2023-04-25T00:20:43;11.40;99.90
43679;DHT22;29279;50.858;4.392;2023-04-25T00:23:15;11.40;99.90
43679;DHT22;29279;50.858;4.392;2023-04-25T00:25:43;11.40;99.90
43679;DHT22;29279;50.858;4.392;2023-04-25T00:28:09;11.40;99.90
43679;DHT22;29279;50.858;4.392;2023-04-25T00:30:35;11.50;99.90
43679;DHT22;29279;50.858;4.392;2023-04-25T00:33:01;11.50;99.90
43679;DHT22;29279;50.858;4.392;2023-04-25T00:35:27;11.50;99.90
43679;DHT22;29279;50.858;4.392;2023-04-25T00:37:53;11.50;99.90
43679;DHT22;29279;50.858;4.392;2023-04-25T00:40:20;11.40;99.90
43679;DHT22;29279;50.858;4.392;2023-04-25T00:42:47;11.40;99.90
43679;DHT22;29279;50.858;4.392;2023-04-25T00:45:14;11.40;99.90
43679;DHT22;29279;50.858;4.392;2023-04-25T00:47:43;11.40;99.90
43679;DHT22;29279;50.858;4.392;2023-04-25T00:50:09;11.40;99.90
43679;DHT22;29279;50.858;4.392;2023-04-25T00:52:37;11.30;99.90
43679;DHT22;29279;50.858;4.392;2023-04-25T00:55:03;11.30;99.90
43679;DHT22;29279;50.858;4.392;2023-04-25T00:57:29;11.30;99.90
43679;DHT22;29279;50.858;4.392;2023-04-25T00:59:55;11.30;99.90
43679;DHT22;29279;50.858;4.392;2023-04-25T01:02:21;11.20;99.90
43679;DHT22;29279;50.858;4.392;2023-04-25T01:04:48;11.20;99.90
43679;DHT22;29279;50.858;4.392;2023-04-25T01:07:14;11.20;99.90
43679;DHT22;29279;50.858;4.392;2023-04-25T01:09:41;11.20;99.90
43679;DHT22;29279;50.858;4.392;2023-04-25T01:12:06;11.20;99.90
43679;DHT22;29279;50.858;4.392;2023-04-25T01:14:32;11.10;99.90
43679;DHT22;29279;50.858;4.392;2023-04-25T01:16:59;11.10;99.90
43679;DHT22;29279;50.858;4.392;2023-04-25T01:19:25;11.10;99.90
43679;DHT22;29279;50.858;4.392;2023-04-25T01:21:51;11.10;99.90
43679;DHT22;29279;50.858;4.392;2023-04-25T01:24:19;11.10;99.90
43679;DHT22;29279;50.858;4.392;2023-04-25T01:26:46;11.00;99.90
43679;DHT22;29279;50.858;4.392;2023-04-25T01:29:19;11.00;99.90
43679;DHT22;29279;50.858;4.392;2023-04-25T01:31:45;11.00;99.90
43679;DHT22;29279;50.858;4.392;2023-04-25T01:34:12;11.10;99.90
43679;DHT22;29279;50.858;4.392;2023-04-25T01:36:38;11.00;99.90
43679;DHT22;29279;50.858;4.392;2023-04-25T01:39:04;11.00;99.90
43679;DHT22;29279;50.858;4.392;2023-04-25T01:41:30;11.00;99.90
43679;DHT22;29279;50.858;4.392;2023-04-25T01:43:56;11.00;99.90
43679;DHT22;29279;50.858;4.392;2023-04-25T01:46:22;11.00;99.90
43679;DHT22;29279;50.858;4.392;2023-04-25T01:48:48;11.00;99.90
43679;DHT22;29279;50.858;4.392;2023-04-25T01:51:14;10.90;99.90
43679;DHT22;29279;50.858;4.392;2023-04-25T01:53:40;11.00;99.90
43679;DHT22;29279;50.858;4.392;2023-04-25T01:56:07;11.00;99.90
43679;DHT22;29279;50.858;4.392;2023-04-25T01:58:32;10.90;99.90
43679;DHT22;29279;50.858;4.392;2023-04-25T02:00:58;10.90;99.90
43679;DHT22;29279;50.858;4.392;2023-04-25T02:03:24;10.90;99.90
43679;DHT22;29279;50.858;4.392;2023-04-25T02:05:49;10.90;99.90
43679;DHT22;29279;50.858;4.392;2023-04-25T02:08:16;10.80;99.90
43679;DHT22;29279;50.858;4.392;2023-04-25T02:10:42;10.80;99.90
43679;DHT22;29279;50.858;4.392;2023-04-25T02:13:08;10.90;99.90
43679;DHT22;29279;50.858;4.392;2023-04-25T02:15:33;10.80;99.90
43679;DHT22;29279;50.858;4.392;2023-04-25T02:17:59;10.80;99.90
43679;DHT22;29279;50.858;4.392;2023-04-25T02:20:29;10.70;99.90
43679;DHT22;29279;50.858;4.392;2023-04-25T02:22:55;10.70;99.90
43679;DHT22;29279;50.858;4.392;2023-04-25T02:25:22;10.60;99.90
43679;DHT22;29279;50.858;4.392;2023-04-25T02:27:48;10.70;99.90
43679;DHT22;29279;50.858;4.392;2023-04-25T02:30:15;10.60;99.90
43679;DHT22;29279;50.858;4.392;2023-04-25T02:32:41;10.60;99.90
43679;DHT22;29279;50.858;4.392;2023-04-25T02:35:07;10.50;99.90
43679;DHT22;29279;50.858;4.392;2023-04-25T02:37:34;10.50;99.90
43679;DHT22;29279;50.858;4.392;2023-04-25T02:40:00;10.60;99.90
43679;DHT22;29279;50.858;4.392;2023-04-25T02:42:27;10.50;99.90
43679;DHT22;29279;50.858;4.392;2023-04-25T02:44:53;10.60;99.90
43679;DHT22;29279;50.858;4.392;2023-04-25T02:47:18;10.60;99.90
43679;DHT22;29279;50.858;4.392;2023-04-25T02:49:44;10.50;99.90
43679;DHT22;29279;50.858;4.392;2023-04-25T02:52:11;10.50;99.90
43679;DHT22;29279;50.858;4.392;2023-04-25T02:54:37;10.50;99.90
43679;DHT22;29279;50.858;4.392;2023-04-25T02:57:03;10.60;99.90
43679;DHT22;29279;50.858;4.392;2023-04-25T02:59:31;10.60;99.90
43679;DHT22;29279;50.858;4.392;2023-04-25T03:01:57;10.60;99.90
43679;DHT22;29279;50.858;4.392;2023-04-25T03:04:23;10.60;99.90
43679;DHT22;29279;50.858;4.392;2023-04-25T03:06:50;10.60;99.90
43679;DHT22;29279;50.858;4.392;2023-04-25T03:09:16;10.60;99.90
43679;DHT22;29279;50.858;4.392;2023-04-25T03:11:41;10.60;99.90
43679;DHT22;29279;50.858;4.392;2023-04-25T03:14:07;10.60;99.90
43679;DHT22;29279;50.858;4.392;2023-04-25T03:16:33;10.60;99.90
43679;DHT22;29279;50.858;4.392;2023-04-25T03:18:59;10.50;99.90
43679;DHT22;29279;50.858;4.392;2023-04-25T03:21:25;10.50;99.90
43679;DHT22;29279;50.858;4.392;2023-04-25T03:23:51;10.50;99.90
43679;DHT22;29279;50.858;4.392;2023-04-25T03:26:17;10.50;99.90
43679;DHT22;29279;50.858;4.392;2023-04-25T03:28:43;10.50;99.90
43679;DHT22;29279;50.858;4.392;2023-04-25T03:31:08;10.50;99.90
43679;DHT22;29279;50.858;4.392;2023-04-25T03:33:34;10.40;99.90
43679;DHT22;29279;50.858;4.392;2023-04-25T03:36:00;10.40;99.90
43679;DHT22;29279;50.858;4.392;2023-04-25T03:38:26;10.40;99.90
43679;DHT22;29279;50.858;4.392;2023-04-25T03:40:51;10.40;99.90
43679;DHT22;29279;50.858;4.392;2023-04-25T03:43:18;10.40;99.90
43679;DHT22;29279;50.858;4.392;2023-04-25T03:45:44;10.40;99.90
43679;DHT22;29279;50.858;4.392;2023-04-25T03:48:11;10.30;99.90
43679;DHT22;29279;50.858;4.392;2023-04-25T03:50:36;10.20;99.90
43679;DHT22;29279;50.858;4.392;2023-04-25T03:53:02;10.10;99.90
43679;DHT22;29279;50.858;4.392;2023-04-25T03:55:28;10.10;99.90
43679;DHT22;29279;50.858;4.392;2023-04-25T03:57:53;10.00;99.90
43679;DHT22;29279;50.858;4.392;2023-04-25T04:00:22;10.00;99.90
43679;DHT22;29279;50.858;4.392;2023-04-25T04:02:48;10.00;99.90
43679;DHT22;29279;50.858;4.392;2023-04-25T04:05:13;10.00;99.90
43679;DHT22;29279;50.858;4.392;2023-04-25T04:07:39;10.10;99.90
43679;DHT22;29279;50.858;4.392;2023-04-25T04:10:11;10.10;99.90
43679;DHT22;29279;50.858;4.392;2023-04-25T04:12:37;10.10;99.90
43679;DHT22;29279;50.858;4.392;2023-04-25T04:15:04;10.00;99.90
43679;DHT22;29279;50.858;4.392;2023-04-25T04:17:30;10.10;99.90
43679;DHT22;29279;50.858;4.392;2023-04-25T04:19:56;10.10;99.90
43679;DHT22;29279;50.858;4.392;2023-04-25T04:22:22;10.10;99.90
43679;DHT22;29279;50.858;4.392;2023-04-25T04:24:48;10.20;99.90
43679;DHT22;29279;50.858;4.392;2023-04-25T04:27:15;10.20;99.90
43679;DHT22;29279;50.858;4.392;2023-04-25T04:29:43;10.10;99.90
43679;DHT22;29279;50.858;4.392;2023-04-25T04:32:09;10.10;99.90
43679;DHT22;29279;50.858;4.392;2023-04-25T04:34:34;10.10;99.90
43679;DHT22;29279;50.858;4.392;2023-04-25T04:37:00;10.10;99.90
43679;DHT22;29279;50.858;4.392;2023-04-25T04:39:26;10.10;99.90
43679;DHT22;29279;50.858;4.392;2023-04-25T04:41:52;10.10;99.90
43679;DHT22;29279;50.858;4.392;2023-04-25T04:44:17;10.10;99.90
43679;DHT22;29279;50.858;4.392;2023-04-25T04:46:43;10.10;99.90
43679;DHT22;29279;50.858;4.392;2023-04-25T04:49:13;10.10;99.90
43679;DHT22;29279;50.858;4.392;2023-04-25T04:51:42;10.10;99.90
43679;DHT22;29279;50.858;4.392;2023-04-25T04:54:10;10.10;99.90
43679;DHT22;29279;50.858;4.392;2023-04-25T04:56:35;10.20;99.90
43679;DHT22;29279;50.858;4.392;2023-04-25T04:59:01;10.10;99.90
43679;DHT22;29279;50.858;4.392;2023-04-25T05:01:28;9.90;99.90
43679;DHT22;29279;50.858;4.392;2023-04-25T05:03:55;9.90;99.90
43679;DHT22;29279;50.858;4.392;2023-04-25T05:06:28;9.90;99.90
43679;DHT22;29279;50.858;4.392;2023-04-25T05:08:55;9.90;99.90
43679;DHT22;29279;50.858;4.392;2023-04-25T05:11:22;10.00;99.90
43679;DHT22;29279;50.858;4.392;2023-04-25T05:13:49;9.90;99.90
43679;DHT22;29279;50.858;4.392;2023-04-25T05:16:15;10.00;99.90
43679;DHT22;29279;50.858;4.392;2023-04-25T05:18:42;9.80;99.90
43679;DHT22;29279;50.858;4.392;2023-04-25T05:21:07;9.90;99.90
43679;DHT22;29279;50.858;4.392;2023-04-25T05:23:33;9.80;99.90
43679;DHT22;29279;50.858;4.392;2023-04-25T05:25:59;9.80;99.90
43679;DHT22;29279;50.858;4.392;2023-04-25T05:28:25;9.70;99.90
43679;DHT22;29279;50.858;4.392;2023-04-25T05:30:51;9.70;99.90
43679;DHT22;29279;50.858;4.392;2023-04-25T05:33:16;9.70;99.90
43679;DHT22;29279;50.858;4.392;2023-04-25T05:35:42;9.60;99.90
43679;DHT22;29279;50.858;4.392;2023-04-25T05:38:08;9.70;99.90
43679;DHT22;29279;50.858;4.392;2023-04-25T05:40:34;9.70;99.90
43679;DHT22;29279;50.858;4.392;2023-04-25T05:43:00;9.80;99.90
43679;DHT22;29279;50.858;4.392;2023-04-25T05:45:26;9.90;99.90
43679;DHT22;29279;50.858;4.392;2023-04-25T05:47:51;10.00;99.90
43679;DHT22;29279;50.858;4.392;2023-04-25T05:50:17;10.00;99.90
43679;DHT22;29279;50.858;4.392;2023-04-25T05:52:43;10.00;99.90
43679;DHT22;29279;50.858;4.392;2023-04-25T05:55:09;10.10;99.90
43679;DHT22;29279;50.858;4.392;2023-04-25T05:57:34;10.10;99.90
43679;DHT22;29279;50.858;4.392;2023-04-25T06:00:01;10.10;99.90
43679;DHT22;29279;50.858;4.392;2023-04-25T06:02:26;10.20;99.90
43679;DHT22;29279;50.858;4.392;2023-04-25T06:04:52;10.20;99.90
43679;DHT22;29279;50.858;4.392;2023-04-25T06:07:19;10.30;99.90
43679;DHT22;29279;50.858;4.392;2023-04-25T06:09:45;10.40;99.90
43679;DHT22;29279;50.858;4.392;2023-04-25T06:12:11;10.40;99.90
43679;DHT22;29279;50.858;4.392;2023-04-25T06:14:37;10.50;99.90
43679;DHT22;29279;50.858;4.392;2023-04-25T06:17:04;10.50;99.90
43679;DHT22;29279;50.858;4.392;2023-04-25T06:19:34;10.50;99.90
43679;DHT22;29279;50.858;4.392;2023-04-25T06:22:00;10.60;99.90
43679;DHT22;29279;50.858;4.392;2023-04-25T06:24:26;10.60;99.90
43679;DHT22;29279;50.858;4.392;2023-04-25T06:26:52;10.70;99.90
43679;DHT22;29279;50.858;4.392;2023-04-25T06:29:18;10.70;99.90
43679;DHT22;29279;50.858;4.392;2023-04-25T06:31:44;10.80;99.90
43679;DHT22;29279;50.858;4.392;2023-04-25T06:34:10;10.80;99.90
43679;DHT22;29279;50.858;4.392;2023-04-25T06:36:36;10.90;99.90
43679;DHT22;29279;50.858;4.392;2023-04-25T06:39:02;10.90;99.90
43679;DHT22;29279;50.858;4.392;2023-04-25T06:41:27;10.90;99.90
43679;DHT22;29279;50.858;4.392;2023-04-25T06:43:53;10.90;99.90
43679;DHT22;29279;50.858;4.392;2023-04-25T06:46:19;10.90;99.90
43679;DHT22;29279;50.858;4.392;2023-04-25T06:48:44;10.80;99.90
43679;DHT22;29279;50.858;4.392;2023-04-25T06:51:10;10.80;99.90
43679;DHT22;29279;50.858;4.392;2023-04-25T06:53:36;10.80;99.90
43679;DHT22;29279;50.858;4.392;2023-04-25T06:56:02;10.80;99.90
43679;DHT22;29279;50.858;4.392;2023-04-25T06:58:28;10.90;99.90
43679;DHT22;29279;50.858;4.392;2023-04-25T07:00:54;10.90;99.90
43679;DHT22;29279;50.858;4.392;2023-04-25T07:03:20;11.00;99.90
43679;DHT22;29279;50.858;4.392;2023-04-25T07:05:46;11.10;99.90
43679;DHT22;29279;50.858;4.392;2023-04-25T07:08:11;11.10;99.90
43679;DHT22;29279;50.858;4.392;2023-04-25T07:10:37;11.20;99.90
43679;DHT22;29279;50.858;4.392;2023-04-25T07:13:03;11.30;99.90
43679;DHT22;29279;50.858;4.392;2023-04-25T07:15:29;11.30;99.90
43679;DHT22;29279;50.858;4.392;2023-04-25T07:17:54;11.30;99.90
43679;DHT22;29279;50.858;4.392;2023-04-25T07:20:20;11.30;99.90
43679;DHT22;29279;50.858;4.392;2023-04-25T07:22:46;11.30;99.90
43679;DHT22;29279;50.858;4.392;2023-04-25T07:25:12;11.30;99.90
43679;DHT22;29279;50.858;4.392;2023-04-25T07:27:37;11.40;99.90
43679;DHT22;29279;50.858;4.392;2023-04-25T07:30:05;11.40;99.90
43679;DHT22;29279;50.858;4.392;2023-04-25T07:32:30;11.50;99.90
43679;DHT22;29279;50.858;4.392;2023-04-25T07:34:56;11.60;99.90
43679;DHT22;29279;50.858;4.392;2023-04-25T07:37:22;11.70;99.90
43679;DHT22;29279;50.858;4.392;2023-04-25T07:39:47;11.90;99.90
43679;DHT22;29279;50.858;4.392;2023-04-25T07:42:13;11.90;99.90
43679;DHT22;29279;50.858;4.392;2023-04-25T07:44:40;12.00;99.90
43679;DHT22;29279;50.858;4.392;2023-04-25T07:47:06;12.10;99.90
43679;DHT22;29279;50.858;4.392;2023-04-25T07:49:36;12.20;99.90
43679;DHT22;29279;50.858;4.392;2023-04-25T07:52:03;12.20;99.90
43679;DHT22;29279;50.858;4.392;2023-04-25T07:54:29;12.30;99.90
43679;DHT22;29279;50.858;4.392;2023-04-25T07:56:55;12.40;99.90
43679;DHT22;29279;50.858;4.392;2023-04-25T07:59:21;12.40;99.90
43679;DHT22;29279;50.858;4.392;2023-04-25T08:01:47;12.50;99.90
43679;DHT22;29279;50.858;4.392;2023-04-25T08:04:13;12.60;99.90
43679;DHT22;29279;50.858;4.392;2023-04-25T08:06:38;12.70;99.90
43679;DHT22;29279;50.858;4.392;2023-04-25T08:09:06;12.70;99.90
43679;DHT22;29279;50.858;4.392;2023-04-25T08:11:32;12.70;99.90
43679;DHT22;29279;50.858;4.392;2023-04-25T08:13:58;12.70;99.90
43679;DHT22;29279;50.858;4.392;2023-04-25T08:16:23;12.80;99.90
43679;DHT22;29279;50.858;4.392;2023-04-25T08:18:50;13.10;99.90
43679;DHT22;29279;50.858;4.392;2023-04-25T08:21:16;13.10;99.90
43679;DHT22;29279;50.858;4.392;2023-04-25T08:23:41;13.20;99.90
43679;DHT22;29279;50.858;4.392;2023-04-25T08:26:07;13.20;99.90
43679;DHT22;29279;50.858;4.392;2023-04-25T08:28:33;13.30;99.90
43679;DHT22;29279;50.858;4.392;2023-04-25T08:30:59;13.40;99.90
43679;DHT22;29279;50.858;4.392;2023-04-25T08:33:25;13.30;99.90
43679;DHT22;29279;50.858;4.392;2023-04-25T08:35:51;13.30;99.90
43679;DHT22;29279;50.858;4.392;2023-04-25T08:38:17;13.40;99.90
43679;DHT22;29279;50.858;4.392;2023-04-25T08:40:43;13.50;99.90
43679;DHT22;29279;50.858;4.392;2023-04-25T08:43:13;13.60;99.90
43679;DHT22;29279;50.858;4.392;2023-04-25T08:45:41;13.60;99.90
43679;DHT22;29279;50.858;4.392;2023-04-25T08:48:15;13.60;99.90
43679;DHT22;29279;50.858;4.392;2023-04-25T08:50:48;13.60;99.90
43679;DHT22;29279;50.858;4.392;2023-04-25T08:53:16;13.70;99.90
43679;DHT22;29279;50.858;4.392;2023-04-25T08:55:45;13.80;99.30
43679;DHT22;29279;50.858;4.392;2023-04-25T08:58:12;13.80;98.80
43679;DHT22;29279;50.858;4.392;2023-04-25T09:00:38;14.00;99.10
43679;DHT22;29279;50.858;4.392;2023-04-25T09:03:05;14.00;98.80
43679;DHT22;29279;50.858;4.392;2023-04-25T09:05:32;14.00;98.00
43679;DHT22;29279;50.858;4.392;2023-04-25T09:07:58;13.90;98.10
43679;DHT22;29279;50.858;4.392;2023-04-25T09:10:28;13.80;98.10
43679;DHT22;29279;50.858;4.392;2023-04-25T09:13:08;13.90;97.60
43679;DHT22;29279;50.858;4.392;2023-04-25T09:15:51;14.10;97.70
43679;DHT22;29279;50.858;4.392;2023-04-25T09:18:27;13.90;96.70
43679;DHT22;29279;50.858;4.392;2023-04-25T09:20:57;13.90;96.50
43679;DHT22;29279;50.858;4.392;2023-04-25T09:23:23;13.80;95.90
43679;DHT22;29279;50.858;4.392;2023-04-25T09:25:51;13.50;95.60
43679;DHT22;29279;50.858;4.392;2023-04-25T09:28:28;13.30;96.20
43679;DHT22;29279;50.858;4.392;2023-04-25T09:30:57;13.20;96.60
43679;DHT22;29279;50.858;4.392;2023-04-25T09:33:33;13.30;97.30
43679;DHT22;29279;50.858;4.392;2023-04-25T09:36:08;13.40;96.80
43679;DHT22;29279;50.858;4.392;2023-04-25T09:38:52;13.50;97.20
43679;DHT22;29279;50.858;4.392;2023-04-25T09:41:23;13.60;97.50
43679;DHT22;29279;50.858;4.392;2023-04-25T09:43:49;13.90;97.90
43679;DHT22;29279;50.858;4.392;2023-04-25T09:46:15;13.90;98.10
43679;DHT22;29279;50.858;4.392;2023-04-25T09:48:48;14.00;97.70
43679;DHT22;29279;50.858;4.392;2023-04-25T09:51:14;14.10;97.80
43679;DHT22;29279;50.858;4.392;2023-04-25T09:53:45;14.60;97.30
43679;DHT22;29279;50.858;4.392;2023-04-25T09:56:16;15.20;96.20
43679;DHT22;29279;50.858;4.392;2023-04-25T09:58:44;15.90;96.00
43679;DHT22;29279;50.858;4.392;2023-04-25T10:01:10;16.90;94.20
43679;DHT22;29279;50.858;4.392;2023-04-25T10:03:37;17.90;94.00
43679;DHT22;29279;50.858;4.392;2023-04-25T10:06:12;17.90;92.30
43679;DHT22;29279;50.858;4.392;2023-04-25T10:08:40;17.80;91.40
43679;DHT22;29279;50.858;4.392;2023-04-25T10:11:08;18.20;90.80
43679;DHT22;29279;50.858;4.392;2023-04-25T10:13:35;18.20;88.90
43679;DHT22;29279;50.858;4.392;2023-04-25T10:16:03;18.40;89.40
43679;DHT22;29279;50.858;4.392;2023-04-25T10:18:30;19.40;86.40
43679;DHT22;29279;50.858;4.392;2023-04-25T10:20:59;20.50;83.00
43679;DHT22;29279;50.858;4.392;2023-04-25T10:23:25;21.60;82.70
43679;DHT22;29279;50.858;4.392;2023-04-25T10:25:52;22.60;79.90
43679;DHT22;29279;50.858;4.392;2023-04-25T10:28:19;23.40;76.90
43679;DHT22;29279;50.858;4.392;2023-04-25T10:31:06;23.60;73.40
43679;DHT22;29279;50.858;4.392;2023-04-25T10:33:37;22.50;73.20
43679;DHT22;29279;50.858;4.392;2023-04-25T10:38:36;22.00;72.60
43679;DHT22;29279;50.858;4.392;2023-04-25T10:41:07;21.60;70.70
43679;DHT22;29279;50.858;4.392;2023-04-25T10:43:38;21.30;71.00
43679;DHT22;29279;50.858;4.392;2023-04-25T10:46:25;22.50;68.40
43679;DHT22;29279;50.858;4.392;2023-04-25T10:48:56;22.90;66.60
43679;DHT22;29279;50.858;4.392;2023-04-25T10:51:27;22.30;68.70
43679;DHT22;29279;50.858;4.392;2023-04-25T10:53:57;21.70;68.00
43679;DHT22;29279;50.858;4.392;2023-04-25T10:56:28;21.30;68.50
43679;DHT22;29279;50.858;4.392;2023-04-25T11:01:44;19.70;70.10
43679;DHT22;29279;50.858;4.392;2023-04-25T11:04:24;19.10;72.00
43679;DHT22;29279;50.858;4.392;2023-04-25T11:09:29;18.50;73.40
43679;DHT22;29279;50.858;4.392;2023-04-25T11:11:59;17.90;76.10
43679;DHT22;29279;50.858;4.392;2023-04-25T11:14:26;17.50;78.40
43679;DHT22;29279;50.858;4.392;2023-04-25T11:16:59;17.00;79.50
43679;DHT22;29279;50.858;4.392;2023-04-25T11:19:26;16.60;79.90
43679;DHT22;29279;50.858;4.392;2023-04-25T11:21:59;16.40;79.70
43679;DHT22;29279;50.858;4.392;2023-04-25T11:24:29;16.10;81.00
43679;DHT22;29279;50.858;4.392;2023-04-25T11:26:56;16.00;81.90
43679;DHT22;29279;50.858;4.392;2023-04-25T11:29:23;15.90;83.00
43679;DHT22;29279;50.858;4.392;2023-04-25T11:31:48;16.80;82.70
43679;DHT22;29279;50.858;4.392;2023-04-25T11:34:18;17.90;80.20
43679;DHT22;29279;50.858;4.392;2023-04-25T11:36:45;18.20;79.80
43679;DHT22;29279;50.858;4.392;2023-04-25T11:39:11;18.10;79.40
43679;DHT22;29279;50.858;4.392;2023-04-25T11:41:38;18.10;80.10
43679;DHT22;29279;50.858;4.392;2023-04-25T11:44:04;18.80;78.60
43679;DHT22;29279;50.858;4.392;2023-04-25T11:46:31;18.90;77.60
43679;DHT22;29279;50.858;4.392;2023-04-25T11:48:59;19.00;76.80
43679;DHT22;29279;50.858;4.392;2023-04-25T11:51:25;18.80;76.70
43679;DHT22;29279;50.858;4.392;2023-04-25T11:53:51;19.10;75.20
43679;DHT22;29279;50.858;4.392;2023-04-25T11:56:17;18.90;73.30
43679;DHT22;29279;50.858;4.392;2023-04-25T11:58:56;20.10;71.60
43679;DHT22;29279;50.858;4.392;2023-04-25T12:01:33;20.40;71.40
43679;DHT22;29279;50.858;4.392;2023-04-25T12:04:20;20.70;70.30
43679;DHT22;29279;50.858;4.392;2023-04-25T12:06:47;21.50;69.00
43679;DHT22;29279;50.858;4.392;2023-04-25T12:09:33;21.70;68.40
43679;DHT22;29279;50.858;4.392;2023-04-25T12:12:00;21.10;69.20
43679;DHT22;29279;50.858;4.392;2023-04-25T12:14:31;20.60;70.10
43679;DHT22;29279;50.858;4.392;2023-04-25T12:16:59;20.20;71.20
43679;DHT22;29279;50.858;4.392;2023-04-25T12:19:27;19.80;70.40
43679;DHT22;29279;50.858;4.392;2023-04-25T12:21:57;19.50;70.30
43679;DHT22;29279;50.858;4.392;2023-04-25T12:24:24;19.00;68.90
43679;DHT22;29279;50.858;4.392;2023-04-25T12:27:05;18.60;68.60
43679;DHT22;29279;50.858;4.392;2023-04-25T12:29:32;18.00;69.70
43679;DHT22;29279;50.858;4.392;2023-04-25T12:31:58;17.60;70.80
43679;DHT22;29279;50.858;4.392;2023-04-25T12:34:25;17.30;71.10
43679;DHT22;29279;50.858;4.392;2023-04-25T12:36:52;17.40;70.20
43679;DHT22;29279;50.858;4.392;2023-04-25T12:39:22;18.30;67.90
43679;DHT22;29279;50.858;4.392;2023-04-25T12:41:49;18.80;68.10
43679;DHT22;29279;50.858;4.392;2023-04-25T12:44:15;20.50;66.30
43679;DHT22;29279;50.858;4.392;2023-04-25T12:46:41;21.90;66.00
43679;DHT22;29279;50.858;4.392;2023-04-25T12:49:07;23.00;64.20
43679;DHT22;29279;50.858;4.392;2023-04-25T12:51:34;24.10;65.20
43679;DHT22;29279;50.858;4.392;2023-04-25T12:54:00;22.80;63.80
43679;DHT22;29279;50.858;4.392;2023-04-25T12:56:27;21.20;64.90
43679;DHT22;29279;50.858;4.392;2023-04-25T12:58:53;20.10;65.30
43679;DHT22;29279;50.858;4.392;2023-04-25T13:01:22;19.30;66.50
43679;DHT22;29279;50.858;4.392;2023-04-25T13:03:48;18.80;69.50
43679;DHT22;29279;50.858;4.392;2023-04-25T13:06:15;18.10;71.00
43679;DHT22;29279;50.858;4.392;2023-04-25T13:08:41;18.40;72.20
43679;DHT22;29279;50.858;4.392;2023-04-25T13:11:08;18.20;72.20
43679;DHT22;29279;50.858;4.392;2023-04-25T13:13:34;18.00;71.90
43679;DHT22;29279;50.858;4.392;2023-04-25T13:16:01;17.90;70.90
43679;DHT22;29279;50.858;4.392;2023-04-25T13:18:30;18.00;71.20
43679;DHT22;29279;50.858;4.392;2023-04-25T13:20:56;18.10;70.90
43679;DHT22;29279;50.858;4.392;2023-04-25T13:23:22;19.10;70.90
43679;DHT22;29279;50.858;4.392;2023-04-25T13:25:48;21.40;67.00
43679;DHT22;29279;50.858;4.392;2023-04-25T13:28:14;22.80;64.20
43679;DHT22;29279;50.858;4.392;2023-04-25T13:30:40;22.70;64.50
43679;DHT22;29279;50.858;4.392;2023-04-25T13:33:06;23.70;63.00
43679;DHT22;29279;50.858;4.392;2023-04-25T13:35:35;23.50;63.10
43679;DHT22;29279;50.858;4.392;2023-04-25T13:38:01;24.00;62.50
43679;DHT22;29279;50.858;4.392;2023-04-25T13:40:27;23.40;62.20
43679;DHT22;29279;50.858;4.392;2023-04-25T13:42:53;23.40;59.90
43679;DHT22;29279;50.858;4.392;2023-04-25T13:45:19;23.40;59.80
43679;DHT22;29279;50.858;4.392;2023-04-25T13:47:45;22.40;59.10
43679;DHT22;29279;50.858;4.392;2023-04-25T13:50:13;22.30;59.50
43679;DHT22;29279;50.858;4.392;2023-04-25T13:52:39;22.00;60.70
43679;DHT22;29279;50.858;4.392;2023-04-25T13:55:06;20.90;62.80
43679;DHT22;29279;50.858;4.392;2023-04-25T13:57:33;19.90;65.20
43679;DHT22;29279;50.858;4.392;2023-04-25T13:59:59;19.20;66.90
43679;DHT22;29279;50.858;4.392;2023-04-25T14:02:25;18.70;67.60
43679;DHT22;29279;50.858;4.392;2023-04-25T14:04:51;19.60;67.70
43679;DHT22;29279;50.858;4.392;2023-04-25T14:07:18;21.30;66.30
43679;DHT22;29279;50.858;4.392;2023-04-25T14:09:44;22.50;65.00
43679;DHT22;29279;50.858;4.392;2023-04-25T14:12:10;22.80;63.50
43679;DHT22;29279;50.858;4.392;2023-04-25T14:14:36;23.20;62.80
43679;DHT22;29279;50.858;4.392;2023-04-25T14:17:03;23.60;61.00
43679;DHT22;29279;50.858;4.392;2023-04-25T14:19:29;24.20;61.00
43679;DHT22;29279;50.858;4.392;2023-04-25T14:21:55;24.30;59.40
43679;DHT22;29279;50.858;4.392;2023-04-25T14:24:20;24.00;59.30
43679;DHT22;29279;50.858;4.392;2023-04-25T14:26:46;23.90;60.20
43679;DHT22;29279;50.858;4.392;2023-04-25T14:29:12;24.10;59.30
43679;DHT22;29279;50.858;4.392;2023-04-25T14:31:38;24.20;58.00
43679;DHT22;29279;50.858;4.392;2023-04-25T14:34:05;24.00;58.60
43679;DHT22;29279;50.858;4.392;2023-04-25T14:36:31;24.00;57.50
43679;DHT22;29279;50.858;4.392;2023-04-25T14:38:58;24.00;57.70
43679;DHT22;29279;50.858;4.392;2023-04-25T14:41:24;22.90;58.20
43679;DHT22;29279;50.858;4.392;2023-04-25T14:43:50;22.60;57.90
43679;DHT22;29279;50.858;4.392;2023-04-25T14:46:16;22.10;59.10
43679;DHT22;29279;50.858;4.392;2023-04-25T14:48:42;21.70;60.10
43679;DHT22;29279;50.858;4.392;2023-04-25T14:51:08;21.50;60.80
43679;DHT22;29279;50.858;4.392;2023-04-25T14:53:33;20.50;62.20
43679;DHT22;29279;50.858;4.392;2023-04-25T14:55:59;19.60;62.10
43679;DHT22;29279;50.858;4.392;2023-04-25T14:58:25;19.00;63.80
43679;DHT22;29279;50.858;4.392;2023-04-25T15:00:50;19.40;63.90
43679;DHT22;29279;50.858;4.392;2023-04-25T15:03:16;19.70;62.50
43679;DHT22;29279;50.858;4.392;2023-04-25T15:05:42;19.90;61.50
43679;DHT22;29279;50.858;4.392;2023-04-25T15:08:08;19.90;62.30
43679;DHT22;29279;50.858;4.392;2023-04-25T15:10:34;20.00;62.50
43679;DHT22;29279;50.858;4.392;2023-04-25T15:13:00;20.00;62.50
43679;DHT22;29279;50.858;4.392;2023-04-25T15:15:26;19.90;63.30
43679;DHT22;29279;50.858;4.392;2023-04-25T15:17:52;19.50;64.00
43679;DHT22;29279;50.858;4.392;2023-04-25T15:20:20;18.90;64.00
43679;DHT22;29279;50.858;4.392;2023-04-25T15:22:46;18.70;65.00
43679;DHT22;29279;50.858;4.392;2023-04-25T15:25:14;19.00;64.90
43679;DHT22;29279;50.858;4.392;2023-04-25T15:27:44;18.90;64.80
43679;DHT22;29279;50.858;4.392;2023-04-25T15:30:14;18.90;64.60
43679;DHT22;29279;50.858;4.392;2023-04-25T15:32:44;18.90;63.70
43679;DHT22;29279;50.858;4.392;2023-04-25T15:35:11;18.70;63.70
43679;DHT22;29279;50.858;4.392;2023-04-25T15:37:37;18.50;62.90
43679;DHT22;29279;50.858;4.392;2023-04-25T15:40:06;18.30;63.40